createdAt,value
2023-04-17T04:02:05.510Z,100.00
2023-04-17T04:06:20.265Z,100.00
2023-04-17T04:10:32.980Z,100.00
2023-04-17T04:14:44.938Z,100.00
2023-04-17T04:18:58.726Z,100.00
2023-04-17T04:23:10.742Z,100.00
2023-04-17T04:27:23.382Z,100.00
2023-04-17T04:31:37.867Z,100.00
2023-04-17T04:35:51.346Z,100.00
2023-04-17T04:40:10.502Z,100.00
2023-04-17T04:44:25.443Z,100.00
2023-04-17T04:48:42.831Z,100.00
2023-04-17T04:52:54.970Z,100.00
2023-04-17T04:57:18.615Z,100.00
2023-04-17T05:01:32.776Z,100.00
2023-04-17T05:05:44.871Z,100.00
2023-04-17T05:09:59.012Z,100.00
2023-04-17T05:14:12.008Z,100.00
2023-04-17T05:18:24.379Z,100.00
2023-04-17T05:22:36.237Z,100.00
2023-04-17T05:26:54.825Z,100.00
2023-04-17T05:31:06.937Z,100.00
2023-04-17T05:35:23.565Z,100.00
2023-04-17T05:39:36.204Z,100.00
2023-04-17T05:43:47.702Z,100.00
2023-04-17T05:47:59.320Z,100.00
2023-04-17T05:52:10.969Z,100.00
2023-04-17T05:56:27.492Z,100.00
2023-04-17T06:00:42.055Z,100.00
2023-04-17T06:04:58.597Z,100.00
2023-04-17T06:09:11.800Z,100.00
2023-04-17T06:13:24.546Z,100.00
2023-04-17T06:17:38.052Z,100.00
2023-04-17T06:21:50.162Z,100.00
2023-04-17T06:26:03.903Z,100.00
2023-04-17T06:30:15.448Z,100.00
2023-04-17T06:34:41.382Z,100.00
2023-04-17T06:38:59.860Z,100.00
2023-04-17T06:43:16.228Z,100.00
2023-04-17T06:47:27.860Z,100.00
2023-04-17T06:51:39.414Z,100.00
2023-04-17T06:55:51.154Z,100.00
2023-04-17T07:00:03.982Z,100.00
2023-04-17T07:04:17.733Z,100.00
2023-04-17T07:08:29.354Z,100.00
2023-04-17T07:12:41.044Z,100.00
2023-04-17T07:16:52.644Z,100.00
2023-04-17T07:21:04.234Z,100.00
2023-04-17T07:25:15.938Z,100.00
2023-04-17T07:29:27.556Z,100.00
2023-04-17T07:33:40.454Z,100.00
2023-04-17T07:37:52.505Z,100.00
2023-04-17T07:42:06.746Z,100.00
2023-04-17T07:46:18.303Z,100.00
2023-04-17T07:50:30.356Z,100.00
2023-04-17T07:54:41.920Z,100.00
2023-04-17T07:58:53.546Z,100.00
2023-04-17T08:03:08.399Z,100.00
2023-04-17T08:07:20.304Z,97.76
2023-04-17T08:11:35.693Z,97.30
2023-04-17T08:15:52.174Z,95.80
2023-04-17T08:20:11.931Z,92.71
2023-04-17T08:24:24.496Z,93.00
2023-04-17T08:28:36.024Z,90.54
2023-04-17T08:32:49.998Z,90.79
2023-04-17T08:37:01.733Z,89.29
2023-04-17T08:41:20.769Z,88.48
2023-04-17T08:45:35.424Z,90.08
2023-04-17T08:49:47.233Z,89.42
2023-04-17T08:53:58.872Z,90.07
2023-04-17T08:58:10.727Z,91.51
2023-04-17T09:02:23.613Z,91.62
2023-04-17T09:06:54.266Z,93.62
2023-04-17T09:11:17.255Z,93.53
2023-04-17T09:15:29.002Z,92.85
2023-04-17T09:20:09.343Z,92.63
2023-04-17T09:24:34.378Z,91.88
2023-04-17T09:29:11.883Z,90.12
2023-04-17T09:33:24.030Z,88.33
2023-04-17T09:37:50.887Z,87.12
2023-04-17T09:42:04.185Z,85.60
2023-04-17T09:46:32.024Z,84.13
2023-04-17T09:50:44.251Z,82.53
2023-04-17T09:54:56.251Z,85.08
2023-04-17T09:59:08.568Z,85.42
2023-04-17T10:03:20.771Z,85.73
2023-04-17T10:07:32.464Z,86.39
2023-04-17T10:11:46.118Z,86.85
2023-04-17T10:15:57.836Z,86.48
2023-04-17T10:20:15.457Z,86.37
2023-04-17T10:24:27.293Z,86.75
2023-04-17T10:28:49.560Z,84.57
2023-04-17T10:33:25.064Z,83.75
2023-04-17T10:37:51.884Z,84.05
2023-04-17T10:42:05.121Z,81.73
2023-04-17T10:46:17.095Z,83.50
2023-04-17T10:50:30.082Z,83.28
2023-04-17T10:55:21.360Z,82.83
2023-04-17T10:59:34.044Z,81.50
2023-04-17T11:03:47.130Z,81.16
2023-04-17T11:07:59.590Z,80.38
2023-04-17T11:12:12.312Z,80.04
2023-04-17T11:16:25.590Z,80.21
2023-04-17T11:20:38.567Z,80.25
2023-04-17T11:24:53.540Z,78.87
2023-04-17T11:29:17.020Z,78.30
2023-04-17T11:33:37.190Z,76.17
2023-04-17T11:38:22.481Z,76.81
2023-04-17T11:42:35.171Z,78.07
2023-04-17T11:46:52.349Z,74.48
2023-04-17T11:51:05.603Z,74.50
2023-04-17T11:55:18.071Z,74.56
2023-04-17T11:59:42.552Z,76.13
2023-04-17T12:03:59.154Z,75.31
2023-04-17T12:08:11.851Z,75.79
2023-04-17T12:12:24.202Z,76.68
2023-04-17T12:16:37.003Z,77.21
2023-04-17T12:20:49.474Z,78.26
2023-04-17T12:25:01.635Z,78.78
2023-04-17T12:29:14.734Z,79.61
2023-04-17T12:33:26.571Z,79.49
2023-04-17T12:37:39.250Z,79.98
2023-04-17T12:41:51.460Z,81.22
2023-04-17T12:46:03.776Z,81.37
2023-04-17T12:50:16.585Z,81.36
2023-04-17T12:54:29.134Z,81.82
2023-04-17T12:58:41.435Z,81.49
2023-04-17T13:02:53.515Z,82.68
2023-04-17T13:07:06.456Z,83.68
2023-04-17T13:11:19.409Z,83.22
2023-04-17T13:15:32.268Z,83.14
2023-04-17T13:19:44.562Z,82.97
2023-04-17T13:23:56.682Z,83.70
2023-04-17T13:28:09.271Z,83.49
2023-04-17T13:32:21.631Z,82.90
2023-04-17T13:36:36.459Z,82.15
2023-04-17T13:40:48.717Z,80.45
2023-04-17T13:45:00.794Z,79.37
2023-04-17T13:49:13.531Z,80.00
2023-04-17T13:53:26.025Z,79.92
2023-04-17T13:57:38.594Z,78.71
2023-04-17T14:01:51.038Z,77.73
2023-04-17T14:06:03.365Z,77.74
2023-04-17T14:10:16.515Z,74.88
2023-04-17T14:14:29.298Z,75.03
2023-04-17T14:18:40.897Z,75.01
2023-04-17T14:22:54.992Z,75.26
2023-04-17T14:27:07.033Z,76.69
2023-04-17T14:31:19.488Z,78.05
2023-04-17T14:35:33.396Z,78.50
2023-04-17T14:39:45.243Z,78.08
2023-04-17T14:43:56.875Z,77.15
2023-04-17T14:48:08.495Z,76.65
2023-04-17T14:52:20.038Z,77.29
2023-04-17T14:56:31.677Z,77.38
2023-04-17T15:00:43.246Z,76.45
2023-04-17T15:04:54.898Z,76.97
2023-04-17T15:09:06.700Z,76.92
2023-04-17T15:13:18.237Z,76.51
2023-04-17T15:17:29.815Z,76.65
2023-04-17T15:21:41.404Z,76.83
2023-04-17T15:25:55.258Z,76.53
2023-04-17T15:30:08.851Z,76.80
2023-04-17T15:34:20.626Z,77.35
2023-04-17T15:38:32.221Z,76.74
2023-04-17T15:42:44.028Z,76.11
2023-04-17T15:46:55.677Z,75.86
2023-04-17T15:51:07.192Z,73.97
2023-04-17T15:55:18.816Z,73.96
2023-04-17T15:59:31.994Z,68.40
2023-04-17T16:03:43.665Z,68.92
2023-04-17T16:07:55.351Z,68.79
2023-04-17T16:12:09.506Z,69.59
2023-04-17T16:16:21.038Z,69.51
2023-04-17T16:20:32.554Z,68.52
2023-04-17T16:24:45.111Z,66.98
2023-04-17T16:28:58.225Z,67.39
2023-04-17T16:33:09.754Z,67.63
2023-04-17T16:37:21.372Z,67.66
2023-04-17T16:41:32.871Z,67.83
2023-04-17T16:45:44.354Z,67.19
2023-04-17T16:49:55.905Z,67.99
2023-04-17T16:54:07.537Z,67.81
2023-04-17T16:58:19.353Z,68.76
2023-04-17T17:02:30.964Z,69.26
2023-04-17T17:06:42.533Z,69.58
2023-04-17T17:10:54.128Z,69.52
2023-04-17T17:15:06.796Z,70.23
2023-04-17T17:19:18.292Z,70.46
2023-04-17T17:23:29.789Z,70.60
2023-04-17T17:27:41.285Z,70.54
2023-04-17T17:31:52.885Z,70.75
2023-04-17T17:36:04.611Z,71.20
2023-04-17T17:40:16.188Z,71.71
2023-04-17T17:44:27.680Z,71.92
2023-04-17T17:48:39.192Z,71.53
2023-04-17T17:52:50.680Z,71.67
2023-04-17T17:57:02.757Z,72.30
2023-04-17T18:01:14.348Z,71.81
2023-04-17T18:05:25.958Z,72.30
2023-04-17T18:09:37.503Z,72.03
2023-04-17T18:13:49.219Z,72.89
2023-04-17T18:18:00.848Z,72.75
2023-04-17T18:22:12.364Z,73.22
2023-04-17T18:26:23.886Z,73.29
2023-04-17T18:30:35.398Z,73.43
2023-04-17T18:34:49.208Z,73.38
2023-04-17T18:39:00.809Z,73.80
2023-04-17T18:43:12.395Z,73.91
2023-04-17T18:47:23.957Z,73.60
2023-04-17T18:51:37.444Z,73.91
2023-04-17T18:55:48.981Z,74.22
2023-04-17T19:00:00.567Z,74.90
2023-04-17T19:04:12.251Z,74.75
2023-04-17T19:08:23.911Z,74.35
2023-04-17T19:12:36.144Z,75.11
2023-04-17T19:16:47.722Z,75.41
2023-04-17T19:20:59.307Z,75.41
2023-04-17T19:25:11.087Z,76.22
2023-04-17T19:29:22.594Z,76.10
2023-04-17T19:33:34.264Z,75.66
2023-04-17T19:37:46.136Z,76.31
2023-04-17T19:41:57.963Z,75.51
2023-04-17T19:46:09.817Z,75.48
2023-04-17T19:50:21.990Z,75.93
2023-04-17T19:54:33.506Z,75.71
2023-04-17T19:58:46.531Z,75.90
2023-04-17T20:02:58.229Z,76.27
2023-04-17T20:07:09.815Z,76.65
2023-04-17T20:11:21.645Z,75.99
2023-04-17T20:15:33.140Z,77.75
2023-04-17T20:19:45.185Z,77.54
2023-04-17T20:23:57.699Z,76.97
2023-04-17T20:28:09.623Z,77.52
2023-04-17T20:32:21.394Z,78.12
2023-04-17T20:36:32.986Z,78.86
2023-04-17T20:40:44.622Z,81.52
2023-04-17T20:44:56.178Z,79.39
2023-04-17T20:49:07.683Z,80.37
2023-04-17T20:53:19.235Z,82.37
2023-04-17T20:57:30.887Z,82.81
2023-04-17T21:01:42.429Z,84.08
2023-04-17T21:05:53.925Z,84.60
2023-04-17T21:10:06.151Z,84.12
2023-04-17T21:14:17.706Z,85.14
2023-04-17T21:18:29.293Z,84.52
2023-04-17T21:22:40.799Z,84.51
2023-04-17T21:26:58.199Z,84.89
